createdAt,value
2019-05-14T00:01:03.264Z,99.90
2019-05-14T00:03:33.142Z,99.90
2019-05-14T00:06:02.702Z,99.90
2019-05-14T00:08:32.198Z,99.90
2019-05-14T00:11:01.857Z,99.90
2019-05-14T00:13:32.192Z,99.90
2019-05-14T00:16:02.135Z,99.90
2019-05-14T00:18:31.732Z,99.90
2019-05-14T00:21:01.998Z,99.90
2019-05-14T00:23:32.059Z,99.90
2019-05-14T00:26:02.036Z,99.90
2019-05-14T00:28:31.993Z,99.90
2019-05-14T00:31:02.995Z,99.90
2019-05-14T00:33:33.449Z,99.90
2019-05-14T00:36:03.089Z,99.90
2019-05-14T00:38:32.614Z,99.90
2019-05-14T00:41:02.239Z,99.90
2019-05-14T00:43:32.374Z,99.90
2019-05-14T00:46:02.310Z,99.90
2019-05-14T00:48:32.103Z,99.90
2019-05-14T00:51:02.411Z,99.90
2019-05-14T00:53:32.305Z,99.90
2019-05-14T00:56:02.301Z,99.90
2019-05-14T00:58:32.194Z,99.90
2019-05-14T01:01:01.897Z,99.90
2019-05-14T01:03:32.379Z,99.90
2019-05-14T01:06:02.973Z,99.90
2019-05-14T01:08:33.639Z,99.90
2019-05-14T01:11:03.184Z,99.90
2019-05-14T01:13:32.718Z,99.90
2019-05-14T01:16:02.504Z,99.90
2019-05-14T01:18:32.447Z,99.90
2019-05-14T01:21:02.195Z,99.90
2019-05-14T01:23:32.246Z,99.90
2019-05-14T01:26:02.484Z,99.90
2019-05-14T01:28:32.375Z,99.90
2019-05-14T01:31:02.034Z,99.90
2019-05-14T01:33:33.181Z,99.90
2019-05-14T01:36:04.224Z,99.90
2019-05-14T01:38:33.806Z,99.90
2019-05-14T01:41:03.453Z,99.90
2019-05-14T01:43:33.147Z,99.90
2019-05-14T01:46:02.570Z,99.90
2019-05-14T01:48:32.127Z,99.90
2019-05-14T01:51:01.850Z,99.90
2019-05-14T01:53:31.769Z,99.90
2019-05-14T01:56:01.825Z,99.90
2019-05-14T01:58:31.509Z,99.90
2019-05-14T02:01:01.924Z,99.90
2019-05-14T02:03:32.404Z,99.90
2019-05-14T02:06:02.107Z,99.90
2019-05-14T02:08:32.389Z,99.90
2019-05-14T02:11:02.076Z,99.90
2019-05-14T02:13:32.165Z,99.90
2019-05-14T02:16:02.542Z,99.90
2019-05-14T02:18:32.446Z,99.90
2019-05-14T02:21:01.943Z,99.90
2019-05-14T02:23:32.163Z,99.90
2019-05-14T02:26:02.740Z,99.90
2019-05-14T02:28:32.518Z,99.90
2019-05-14T02:31:03.785Z,99.90
2019-05-14T02:33:33.798Z,99.90
2019-05-14T02:36:04.206Z,99.90
2019-05-14T02:38:33.752Z,99.90
2019-05-14T02:41:03.557Z,99.90
2019-05-14T02:43:33.162Z,99.90
2019-05-14T02:46:12.077Z,99.90
2019-05-14T02:48:33.961Z,99.90
2019-05-14T02:51:03.575Z,99.90
2019-05-14T02:53:33.150Z,99.90
2019-05-14T02:56:02.783Z,99.90
2019-05-14T02:58:32.227Z,99.90
2019-05-14T03:01:01.731Z,99.90
2019-05-14T03:03:31.305Z,99.90
2019-05-14T03:06:00.925Z,99.90
2019-05-14T03:08:30.904Z,99.90
2019-05-14T03:11:00.888Z,99.90
2019-05-14T03:13:30.463Z,99.90
2019-05-14T03:15:59.928Z,99.90
2019-05-14T03:18:30.038Z,99.90
2019-05-14T03:21:00.877Z,99.90
2019-05-14T03:23:30.852Z,99.90
2019-05-14T03:26:01.002Z,99.90
2019-05-14T03:28:30.875Z,99.90
2019-05-14T03:31:02.852Z,99.90
2019-05-14T03:33:33.745Z,99.90
2019-05-14T03:36:09.127Z,99.90
2019-05-14T03:38:34.433Z,99.90
2019-05-14T03:41:04.013Z,99.90
2019-05-14T03:43:33.526Z,99.90
2019-05-14T03:46:03.125Z,99.90
2019-05-14T03:48:32.570Z,99.90
2019-05-14T03:51:02.115Z,99.90
2019-05-14T03:53:31.553Z,99.90
2019-05-14T03:56:01.194Z,99.90
2019-05-14T03:58:30.935Z,99.90
2019-05-14T04:01:02.047Z,99.90
2019-05-14T04:03:32.128Z,99.90
2019-05-14T04:06:01.980Z,99.90
2019-05-14T04:08:31.956Z,99.90
2019-05-14T04:11:02.374Z,99.90
2019-05-14T04:13:33.106Z,99.90
2019-05-14T04:16:02.639Z,99.90
2019-05-14T04:18:34.638Z,99.90
2019-05-14T04:21:04.639Z,99.90
2019-05-14T04:23:39.313Z,99.90
2019-05-14T04:26:09.413Z,99.90
2019-05-14T04:28:39.330Z,99.90
2019-05-14T04:31:09.781Z,99.90
2019-05-14T04:33:39.539Z,99.90
2019-05-14T04:36:09.985Z,99.90
2019-05-14T04:38:41.176Z,99.90
2019-05-14T04:41:10.820Z,99.90
2019-05-14T04:43:40.670Z,99.90
2019-05-14T04:46:10.761Z,99.90
2019-05-14T04:48:43.358Z,99.90
2019-05-14T04:51:11.692Z,99.90
2019-05-14T04:53:41.188Z,99.90
2019-05-14T04:56:10.626Z,99.90
2019-05-14T04:58:41.239Z,99.90
2019-05-14T05:01:10.900Z,99.90
2019-05-14T05:03:40.468Z,99.90
2019-05-14T05:06:10.872Z,99.90
2019-05-14T05:08:40.355Z,99.90
2019-05-14T05:11:09.859Z,99.90
2019-05-14T05:13:39.966Z,99.90
2019-05-14T05:16:10.200Z,99.90
2019-05-14T05:18:40.272Z,99.90
2019-05-14T05:21:09.878Z,99.90
2019-05-14T05:23:39.409Z,99.90
2019-05-14T05:26:09.390Z,99.90
2019-05-14T05:28:39.378Z,99.90
2019-05-14T05:31:09.401Z,99.90
2019-05-14T05:33:39.063Z,99.90
2019-05-14T05:36:09.371Z,99.90
2019-05-14T05:38:39.643Z,99.90
2019-05-14T05:41:09.255Z,99.90
2019-05-14T05:43:39.476Z,99.90
2019-05-14T05:46:09.161Z,99.90
2019-05-14T05:48:39.081Z,99.90
2019-05-14T05:51:09.105Z,99.90
2019-05-14T05:53:39.550Z,99.90
2019-05-14T05:56:09.236Z,99.90
2019-05-14T05:58:39.762Z,99.90
2019-05-14T06:01:10.668Z,99.90
2019-05-14T06:03:40.171Z,99.90
2019-05-14T06:06:13.505Z,99.90
2019-05-14T06:08:40.847Z,99.90
2019-05-14T06:11:10.301Z,99.90
2019-05-14T06:13:39.916Z,99.90
2019-05-14T06:16:09.819Z,99.90
2019-05-14T06:18:39.653Z,99.90
2019-05-14T06:21:09.382Z,99.90
2019-05-14T06:23:38.978Z,99.90
2019-05-14T06:26:11.345Z,99.90
2019-05-14T06:28:41.210Z,99.90
2019-05-14T06:31:10.879Z,99.90
2019-05-14T06:33:41.397Z,99.90
2019-05-14T06:36:14.399Z,99.90
2019-05-14T06:38:42.198Z,99.90
2019-05-14T06:41:11.706Z,99.90
2019-05-14T06:43:41.195Z,99.90
2019-05-14T06:46:10.660Z,99.90
2019-05-14T06:48:40.108Z,99.90
2019-05-14T06:51:09.656Z,99.90
2019-05-14T06:53:39.475Z,99.90
2019-05-14T06:56:09.044Z,99.90
2019-05-14T06:58:39.471Z,99.90
2019-05-14T07:01:09.737Z,99.90
2019-05-14T07:03:39.638Z,99.70
2019-05-14T07:06:09.276Z,93.40
2019-05-14T07:08:39.376Z,93.40
2019-05-14T07:11:09.006Z,92.80
2019-05-14T07:13:38.778Z,90.00
2019-05-14T07:16:09.007Z,86.80
2019-05-14T07:18:53.473Z,85.20
2019-05-14T07:21:11.001Z,90.60
2019-05-14T07:23:40.499Z,90.40
2019-05-14T07:26:10.080Z,90.00
2019-05-14T07:28:42.508Z,91.70
2019-05-14T07:31:10.931Z,84.50
2019-05-14T07:33:40.427Z,82.80
2019-05-14T07:36:09.865Z,78.00
2019-05-14T07:38:39.448Z,81.70
2019-05-14T07:41:09.465Z,87.30
2019-05-14T07:43:39.509Z,79.80
2019-05-14T07:46:09.169Z,75.00
2019-05-14T07:48:39.229Z,76.00
2019-05-14T07:51:09.228Z,76.60
2019-05-14T07:53:42.242Z,80.40
2019-05-14T07:56:10.066Z,81.00
2019-05-14T07:58:39.530Z,74.60
2019-05-14T08:01:09.613Z,73.80
2019-05-14T08:03:39.278Z,74.20
2019-05-14T08:06:10.563Z,76.30
2019-05-14T08:08:40.051Z,69.60
2019-05-14T08:11:09.515Z,65.00
2019-05-14T08:13:39.465Z,66.00
2019-05-14T08:16:10.151Z,68.30
2019-05-14T08:18:39.838Z,63.90
2019-05-14T08:21:09.820Z,62.00
2019-05-14T08:23:39.515Z,64.60
2019-05-14T08:26:08.975Z,64.60
2019-05-14T08:28:38.610Z,64.40
2019-05-14T08:31:09.407Z,63.40
2019-05-14T08:33:39.737Z,59.90
2019-05-14T08:36:09.463Z,60.70
2019-05-14T08:38:38.955Z,61.30
2019-05-14T08:41:08.675Z,63.10
2019-05-14T08:43:39.774Z,66.70
2019-05-14T08:46:09.525Z,67.10
2019-05-14T08:48:39.173Z,67.20
2019-05-14T08:51:09.251Z,67.10
2019-05-14T08:53:38.916Z,67.10
2019-05-14T08:56:12.081Z,69.80
2019-05-14T08:58:39.755Z,72.00
2019-05-14T09:01:09.179Z,70.90
2019-05-14T09:03:39.437Z,68.70
2019-05-14T09:06:09.343Z,70.10
2019-05-14T09:08:39.369Z,73.00
2019-05-14T09:11:09.922Z,74.50
2019-05-14T09:13:39.734Z,78.80
2019-05-14T09:16:09.439Z,81.30
2019-05-14T09:18:39.256Z,84.50
2019-05-14T09:21:08.931Z,86.70
2019-05-14T09:23:39.342Z,80.30
2019-05-14T09:26:09.735Z,75.10
2019-05-14T09:28:39.567Z,67.20
2019-05-14T09:31:09.198Z,65.80
2019-05-14T09:33:39.081Z,65.80
2019-05-14T09:36:18.510Z,64.00
2019-05-14T09:38:42.305Z,60.70
2019-05-14T09:41:15.330Z,59.10
2019-05-14T09:43:42.176Z,58.20
2019-05-14T09:46:11.611Z,59.60
2019-05-14T09:48:41.007Z,64.20
2019-05-14T09:51:10.481Z,61.50
2019-05-14T09:53:39.977Z,62.40
2019-05-14T09:56:09.442Z,59.80
2019-05-14T09:58:39.013Z,58.90
2019-05-14T10:01:08.775Z,59.30
2019-05-14T10:03:39.178Z,61.00
2019-05-14T10:06:09.743Z,60.10
2019-05-14T10:08:39.511Z,60.00
2019-05-14T10:11:09.325Z,58.40
2019-05-14T10:13:39.804Z,58.20
2019-05-14T10:16:09.697Z,57.70
2019-05-14T10:18:39.227Z,57.30
2019-05-14T10:21:08.831Z,56.40
2019-05-14T10:23:38.883Z,56.80
2019-05-14T10:26:09.236Z,57.00
2019-05-14T10:28:41.288Z,55.80
2019-05-14T10:31:13.206Z,55.80
2019-05-14T10:33:41.506Z,56.50
2019-05-14T10:36:10.935Z,56.20
2019-05-14T10:38:40.373Z,58.90
2019-05-14T10:41:09.838Z,55.40
2019-05-14T10:43:39.356Z,55.30
2019-05-14T10:46:09.253Z,57.80
2019-05-14T10:48:39.606Z,56.20
2019-05-14T10:51:09.881Z,56.70
2019-05-14T10:53:39.730Z,57.50
2019-05-14T10:56:09.839Z,59.30
2019-05-14T10:58:39.512Z,58.20
2019-05-14T11:01:11.247Z,58.50
2019-05-14T11:03:40.139Z,58.60
2019-05-14T11:06:11.697Z,59.40
2019-05-14T11:08:40.842Z,60.30
2019-05-14T11:11:10.803Z,66.40
2019-05-14T11:13:40.357Z,71.40
2019-05-14T11:16:09.879Z,77.00
2019-05-14T11:18:39.836Z,81.00
2019-05-14T11:21:19.748Z,79.40
2019-05-14T11:23:40.855Z,71.00
2019-05-14T11:26:10.314Z,66.10
2019-05-14T11:28:40.054Z,63.20
2019-05-14T11:31:09.531Z,64.00
2019-05-14T11:33:39.130Z,65.00
2019-05-14T11:36:09.392Z,61.90
2019-05-14T11:38:39.094Z,66.50
2019-05-14T11:41:09.540Z,61.50
2019-05-14T11:43:39.987Z,60.90
2019-05-14T11:46:11.315Z,59.50
2019-05-14T11:48:40.854Z,57.60
2019-05-14T11:51:10.462Z,55.70
2019-05-14T11:53:39.991Z,55.20
2019-05-14T11:56:09.530Z,55.70
2019-05-14T11:58:38.981Z,56.80
2019-05-14T12:01:09.263Z,57.10
2019-05-14T12:03:39.526Z,57.50
2019-05-14T12:06:09.997Z,56.70
2019-05-14T12:08:41.807Z,55.30
2019-05-14T12:11:10.826Z,53.30
2019-05-14T12:13:40.332Z,50.90
2019-05-14T12:16:09.931Z,51.20
2019-05-14T12:18:41.743Z,51.70
2019-05-14T12:21:10.465Z,53.00
2019-05-14T12:23:39.893Z,53.10
2019-05-14T12:26:09.754Z,54.50
2019-05-14T12:28:39.235Z,54.80
2019-05-14T12:31:09.381Z,55.00
2019-05-14T12:33:40.319Z,56.00
2019-05-14T12:36:10.520Z,57.40
2019-05-14T12:38:40.342Z,58.30
2019-05-14T12:41:09.838Z,59.30
2019-05-14T12:43:40.226Z,59.10
2019-05-14T12:46:10.781Z,56.90
2019-05-14T12:48:40.550Z,55.20
2019-05-14T12:51:10.186Z,53.30
2019-05-14T12:53:39.799Z,51.30
2019-05-14T12:56:09.360Z,50.50
2019-05-14T12:58:44.909Z,49.70
2019-05-14T13:01:10.116Z,47.10
2019-05-14T13:03:39.710Z,45.90
2019-05-14T13:06:10.258Z,45.30
2019-05-14T13:08:39.938Z,44.30
2019-05-14T13:11:09.949Z,41.90
2019-05-14T13:13:42.877Z,40.90
2019-05-14T13:16:10.669Z,44.60
2019-05-14T13:18:40.138Z,43.30
2019-05-14T13:21:09.761Z,43.20
2019-05-14T13:23:39.187Z,43.40
2019-05-14T13:26:10.471Z,42.10
2019-05-14T13:28:40.376Z,41.30
2019-05-14T13:31:10.043Z,40.90
2019-05-14T13:33:41.451Z,38.50
2019-05-14T13:36:20.903Z,39.10
2019-05-14T13:38:50.537Z,39.40
2019-05-14T13:41:20.075Z,42.90
2019-05-14T13:43:50.645Z,44.50
2019-05-14T13:46:20.215Z,47.40
2019-05-14T13:48:50.215Z,50.00
2019-05-14T13:51:19.884Z,51.60
2019-05-14T13:53:49.981Z,50.20
2019-05-14T13:56:19.645Z,51.90
2019-05-14T13:58:49.215Z,51.40
2019-05-14T14:01:19.377Z,50.40
2019-05-14T14:04:02.436Z,50.90
2019-05-14T14:06:20.896Z,50.30
2019-05-14T14:08:50.499Z,50.50
2019-05-14T14:11:20.013Z,52.40
2019-05-14T14:13:49.559Z,54.20
2019-05-14T14:16:19.906Z,54.40
2019-05-14T14:18:50.199Z,53.60
2019-05-14T14:21:20.130Z,51.90
2019-05-14T14:23:49.902Z,50.40
2019-05-14T14:26:19.551Z,49.90
2019-05-14T14:28:49.652Z,49.00
2019-05-14T14:31:19.254Z,49.00
2019-05-14T14:33:49.014Z,49.50
2019-05-14T14:36:19.950Z,51.20
2019-05-14T14:38:49.961Z,54.80
2019-05-14T14:41:19.784Z,58.30
2019-05-14T14:43:53.350Z,61.30
2019-05-14T14:46:20.411Z,65.10
2019-05-14T14:48:49.928Z,67.10
2019-05-14T14:51:19.682Z,71.90
2019-05-14T14:53:58.983Z,80.80
2019-05-14T14:56:20.313Z,90.50
2019-05-14T14:58:49.767Z,80.10
2019-05-14T15:01:19.866Z,80.80
2019-05-14T15:03:50.435Z,77.60
2019-05-14T15:06:20.335Z,78.10
2019-05-14T15:08:50.023Z,75.80
2019-05-14T15:11:19.731Z,71.00
2019-05-14T15:13:49.305Z,67.10
2019-05-14T15:16:20.048Z,65.20
2019-05-14T15:18:50.073Z,61.80
2019-05-14T15:21:19.638Z,61.50
2019-05-14T15:24:06.221Z,60.00
2019-05-14T15:26:20.419Z,58.70
2019-05-14T15:28:49.954Z,55.30
2019-05-14T15:31:19.487Z,53.30
2019-05-14T15:33:50.989Z,53.60
2019-05-14T15:36:20.179Z,52.90
2019-05-14T15:38:49.744Z,53.40
2019-05-14T15:41:20.046Z,52.70
2019-05-14T15:43:50.061Z,52.70
2019-05-14T15:46:19.672Z,51.10
2019-05-14T15:48:49.134Z,54.10
2019-05-14T15:51:19.499Z,57.20
2019-05-14T15:54:05.615Z,59.80
2019-05-14T15:56:20.643Z,60.90
2019-05-14T15:58:50.150Z,62.60
2019-05-14T16:01:19.751Z,63.10
2019-05-14T16:03:49.277Z,65.00
2019-05-14T16:06:19.397Z,69.20
2019-05-14T16:08:49.118Z,73.00
2019-05-14T16:11:18.898Z,75.70
2019-05-14T16:13:49.458Z,77.50
2019-05-14T16:16:19.693Z,77.00
2019-05-14T16:18:49.321Z,81.20
2019-05-14T16:21:18.991Z,82.20
2019-05-14T16:23:48.433Z,85.20
2019-05-14T16:26:18.771Z,83.50
2019-05-14T16:28:48.511Z,83.40
2019-05-14T16:31:18.498Z,78.40
2019-05-14T16:33:49.300Z,75.60
2019-05-14T16:36:19.312Z,75.10
2019-05-14T16:38:48.783Z,75.30
2019-05-14T16:41:18.617Z,73.60
2019-05-14T16:43:49.384Z,71.70
2019-05-14T16:46:19.298Z,69.50
2019-05-14T16:48:49.016Z,66.10
2019-05-14T16:51:19.367Z,64.50
2019-05-14T16:53:49.120Z,62.30
2019-05-14T16:56:19.264Z,60.50
2019-05-14T16:58:48.877Z,61.60
2019-05-14T17:01:19.190Z,63.10
2019-05-14T17:03:49.422Z,64.80
2019-05-14T17:06:19.304Z,65.20
2019-05-14T17:08:49.199Z,65.00
2019-05-14T17:11:18.683Z,64.90
2019-05-14T17:13:49.026Z,66.20
2019-05-14T17:16:19.660Z,66.90
2019-05-14T17:18:49.390Z,67.80
2019-05-14T17:21:18.973Z,67.60
2019-05-14T17:23:49.026Z,69.50
2019-05-14T17:26:18.904Z,69.10
2019-05-14T17:28:49.002Z,72.10
2019-05-14T17:31:19.134Z,71.00
2019-05-14T17:33:49.325Z,71.10
2019-05-14T17:36:19.052Z,73.80
2019-05-14T17:38:49.185Z,75.90
2019-05-14T17:41:20.878Z,77.70
2019-05-14T17:43:50.353Z,76.70
2019-05-14T17:46:19.855Z,73.10
2019-05-14T17:48:49.686Z,71.70
2019-05-14T17:51:19.113Z,72.00
2019-05-14T17:53:48.538Z,74.20
2019-05-14T17:56:19.049Z,75.10
2019-05-14T17:58:50.845Z,76.50
2019-05-14T18:01:20.390Z,77.70
2019-05-14T18:03:49.837Z,79.20
2019-05-14T18:06:19.574Z,81.50
2019-05-14T18:08:49.209Z,79.90
2019-05-14T18:11:19.258Z,80.50
2019-05-14T18:13:48.988Z,83.00
2019-05-14T18:16:19.175Z,84.10
2019-05-14T18:18:49.440Z,85.40
2019-05-14T18:21:19.282Z,88.70
2019-05-14T18:23:49.329Z,89.00
2019-05-14T18:26:19.139Z,90.10
2019-05-14T18:28:48.589Z,90.60
2019-05-14T18:31:20.406Z,92.70
2019-05-14T18:33:49.519Z,93.40
2019-05-14T18:36:19.386Z,94.80
2019-05-14T18:38:49.519Z,95.80
2019-05-14T18:41:19.362Z,97.10
2019-05-14T18:43:49.199Z,98.50
2019-05-14T18:46:19.199Z,99.60
2019-05-14T18:48:49.095Z,99.90
2019-05-14T18:51:19.733Z,99.90
2019-05-14T18:53:49.442Z,99.90
2019-05-14T18:56:24.020Z,99.90
2019-05-14T18:58:50.208Z,99.90
2019-05-14T19:01:19.867Z,99.90
2019-05-14T19:03:49.643Z,99.90
2019-05-14T19:06:19.265Z,99.90
2019-05-14T19:08:48.687Z,99.90
2019-05-14T19:11:18.149Z,99.90
2019-05-14T19:13:48.391Z,99.90
2019-05-14T19:16:18.100Z,99.90
2019-05-14T19:18:48.883Z,99.90
2019-05-14T19:21:18.494Z,99.90
2019-05-14T19:23:49.135Z,99.90
2019-05-14T19:26:32.931Z,99.90
2019-05-14T19:28:49.950Z,99.90
2019-05-14T19:31:19.411Z,99.90
2019-05-14T19:33:48.999Z,99.90
2019-05-14T19:36:18.815Z,99.90
2019-05-14T19:38:48.307Z,99.90
2019-05-14T19:41:20.945Z,99.90
2019-05-14T19:43:48.972Z,99.90
2019-05-14T19:46:18.391Z,99.90
2019-05-14T19:48:48.400Z,99.90
2019-05-14T19:51:18.798Z,99.90
2019-05-14T19:53:49.524Z,99.90
2019-05-14T19:56:19.564Z,99.90
2019-05-14T19:58:49.047Z,99.90
2019-05-14T20:01:19.358Z,99.90
2019-05-14T20:03:49.125Z,99.90
2019-05-14T20:06:18.924Z,99.90
2019-05-14T20:08:48.441Z,99.90
2019-05-14T20:11:19.258Z,99.90
2019-05-14T20:13:48.936Z,99.90
2019-05-14T20:16:18.621Z,99.90
2019-05-14T20:18:48.764Z,99.90
2019-05-14T20:21:18.658Z,99.90
2019-05-14T20:23:48.306Z,99.90
2019-05-14T20:26:17.709Z,99.90
2019-05-14T20:28:48.404Z,99.90
2019-05-14T20:31:18.191Z,99.90
2019-05-14T20:33:48.511Z,99.90
2019-05-14T20:36:18.761Z,99.90
2019-05-14T20:38:49.933Z,99.90
2019-05-14T20:41:19.531Z,99.90
2019-05-14T20:43:49.897Z,99.90
2019-05-14T20:46:19.323Z,99.90
2019-05-14T20:48:48.762Z,99.90
2019-05-14T20:51:18.736Z,99.90
2019-05-14T20:53:48.824Z,99.90
2019-05-14T20:56:19.051Z,99.90
2019-05-14T20:58:48.641Z,99.90
2019-05-14T21:01:18.580Z,99.90
2019-05-14T21:03:48.414Z,99.90
2019-05-14T21:06:18.932Z,99.90
2019-05-14T21:08:48.895Z,99.90
2019-05-14T21:11:19.102Z,99.90
2019-05-14T21:13:50.357Z,99.90
2019-05-14T21:16:20.192Z,99.90
2019-05-14T21:18:50.627Z,99.90
2019-05-14T21:21:20.026Z,99.90
2019-05-14T21:23:49.519Z,99.90
2019-05-14T21:26:19.615Z,99.90
2019-05-14T21:28:49.086Z,99.90
2019-05-14T21:31:18.571Z,99.90
2019-05-14T21:33:48.989Z,99.90
2019-05-14T21:36:19.411Z,99.90
2019-05-14T21:38:49.185Z,99.90
2019-05-14T21:41:20.532Z,99.90
2019-05-14T21:43:49.852Z,99.90
2019-05-14T21:46:19.551Z,99.90
2019-05-14T21:48:49.152Z,99.90
2019-05-14T21:51:18.648Z,99.90
2019-05-14T21:53:48.401Z,99.90
2019-05-14T21:56:21.521Z,99.90
2019-05-14T21:58:49.122Z,99.90
2019-05-14T22:01:18.884Z,99.90
2019-05-14T22:03:48.752Z,99.90
2019-05-14T22:06:18.375Z,99.90
2019-05-14T22:08:48.791Z,99.90
2019-05-14T22:11:19.431Z,99.90
2019-05-14T22:13:49.621Z,99.90
2019-05-14T22:16:21.108Z,99.90
2019-05-14T22:18:50.631Z,99.90
2019-05-14T22:21:20.325Z,99.90
2019-05-14T22:23:49.827Z,99.90
2019-05-14T22:26:19.670Z,99.90
2019-05-14T22:28:49.401Z,99.90
2019-05-14T22:31:19.376Z,99.90
2019-05-14T22:33:49.081Z,99.90
2019-05-14T22:36:21.402Z,99.90
2019-05-14T22:38:51.303Z,99.90
2019-05-14T22:41:23.141Z,99.90
2019-05-14T22:43:52.020Z,99.90
2019-05-14T22:46:23.015Z,99.90
2019-05-14T22:48:52.657Z,99.90
2019-05-14T22:51:22.481Z,99.90
2019-05-14T22:53:51.985Z,99.90
2019-05-14T22:56:21.607Z,99.90
2019-05-14T22:58:51.382Z,99.90
2019-05-14T23:01:21.236Z,99.90
2019-05-14T23:03:51.029Z,99.90
2019-05-14T23:06:20.769Z,99.90
2019-05-14T23:08:50.323Z,99.90
2019-05-14T23:11:20.015Z,99.90
2019-05-14T23:13:52.475Z,99.90
2019-05-14T23:16:33.434Z,99.90
2019-05-14T23:18:53.151Z,99.90
2019-05-14T23:21:22.761Z,99.90
2019-05-14T23:23:52.399Z,99.90
2019-05-14T23:26:21.943Z,99.90
2019-05-14T23:28:51.567Z,99.90
2019-05-14T23:31:21.187Z,99.90
2019-05-14T23:33:52.678Z,99.90
2019-05-14T23:36:22.166Z,99.90
2019-05-14T23:38:52.187Z,99.90
2019-05-14T23:41:21.726Z,99.90
2019-05-14T23:43:51.301Z,99.90
2019-05-14T23:46:20.776Z,99.90
2019-05-14T23:48:50.383Z,99.90
2019-05-14T23:51:19.919Z,99.90
2019-05-14T23:53:49.493Z,99.90
2019-05-14T23:56:19.493Z,99.90
2019-05-14T23:58:55.754Z,99.90
